createdAt,value
2017-08-23T00:01:27.362Z,6.87
2017-08-23T00:03:55.601Z,6.30
2017-08-23T00:06:23.876Z,7.97
2017-08-23T00:08:52.120Z,6.23
2017-08-23T00:11:20.356Z,8.40
2017-08-23T00:13:48.644Z,8.03
2017-08-23T00:16:16.909Z,6.10
2017-08-23T00:18:45.144Z,5.53
2017-08-23T00:21:13.780Z,5.00
2017-08-23T00:23:42.028Z,4.67
2017-08-23T00:26:10.281Z,5.77
2017-08-23T00:28:38.568Z,5.93
2017-08-23T00:31:06.802Z,6.73
2017-08-23T00:33:35.036Z,5.03
2017-08-23T00:36:03.462Z,5.23
2017-08-23T00:38:31.702Z,5.90
2017-08-23T00:40:59.932Z,5.60
2017-08-23T00:43:28.184Z,8.70
2017-08-23T00:45:56.413Z,6.10
2017-08-23T00:48:24.657Z,5.07
2017-08-23T00:50:52.948Z,8.27
2017-08-23T00:53:21.421Z,7.97
2017-08-23T00:55:49.663Z,4.43
2017-08-23T00:58:17.940Z,6.43
2017-08-23T01:00:46.805Z,8.73
2017-08-23T01:03:15.047Z,11.03
2017-08-23T01:05:44.084Z,6.50
2017-08-23T01:08:12.335Z,5.23
2017-08-23T01:10:40.567Z,6.60
2017-08-23T01:13:08.856Z,5.50
2017-08-23T01:15:37.094Z,4.80
2017-08-23T01:18:05.343Z,8.97
2017-08-23T01:20:33.625Z,4.80
2017-08-23T01:23:02.656Z,7.10
2017-08-23T01:25:30.895Z,4.63
2017-08-23T01:27:59.736Z,4.17
2017-08-23T01:30:27.974Z,6.00
2017-08-23T01:32:56.524Z,7.20
2017-08-23T01:35:24.793Z,4.80
2017-08-23T01:37:53.034Z,5.10
2017-08-23T01:40:21.272Z,4.30
2017-08-23T01:42:49.565Z,7.20
2017-08-23T01:45:17.817Z,5.87
2017-08-23T01:47:46.075Z,6.83
2017-08-23T01:50:14.337Z,5.73
2017-08-23T01:52:42.612Z,4.60
2017-08-23T01:55:11.071Z,8.73
2017-08-23T01:57:39.337Z,6.23
2017-08-23T02:00:07.600Z,5.77
2017-08-23T02:02:35.891Z,6.30
2017-08-23T02:05:04.246Z,9.97
2017-08-23T02:07:32.471Z,7.60
2017-08-23T02:10:00.938Z,7.63
2017-08-23T02:12:29.332Z,6.00
2017-08-23T02:14:57.590Z,5.63
2017-08-23T02:17:25.820Z,7.80
2017-08-23T02:19:54.119Z,6.83
2017-08-23T02:22:22.353Z,6.03
2017-08-23T02:24:50.591Z,6.90
2017-08-23T02:27:19.586Z,4.57
2017-08-23T02:29:47.829Z,4.83
2017-08-23T02:32:16.091Z,7.30
2017-08-23T02:34:44.340Z,6.73
2017-08-23T02:37:12.607Z,5.43
2017-08-23T02:39:40.873Z,4.53
2017-08-23T02:42:09.172Z,7.73
2017-08-23T02:44:37.426Z,5.00
2017-08-23T02:47:05.700Z,8.13
2017-08-23T02:49:33.944Z,5.20
2017-08-23T02:52:02.193Z,12.97
2017-08-23T02:54:30.450Z,7.33
2017-08-23T02:56:58.693Z,6.53
2017-08-23T02:59:26.960Z,5.37
2017-08-23T03:01:55.393Z,5.50
2017-08-23T03:04:23.629Z,5.13
2017-08-23T03:06:51.898Z,5.30
2017-08-23T03:09:20.772Z,6.70
2017-08-23T03:11:49.012Z,4.33
2017-08-23T03:14:17.937Z,7.83
2017-08-23T03:16:46.199Z,4.33
2017-08-23T03:19:14.445Z,4.00
2017-08-23T03:21:42.695Z,9.53
2017-08-23T03:24:11.792Z,4.37
2017-08-23T03:26:40.024Z,6.63
2017-08-23T03:29:08.268Z,4.70
2017-08-23T03:31:36.532Z,7.10
2017-08-23T03:34:04.842Z,5.37
2017-08-23T03:36:33.087Z,5.67
2017-08-23T03:39:01.540Z,4.80
2017-08-23T03:41:29.776Z,7.63
2017-08-23T03:43:58.013Z,5.60
2017-08-23T03:46:26.260Z,5.93
2017-08-23T03:48:54.519Z,7.33
2017-08-23T03:51:22.770Z,6.60
2017-08-23T03:53:51.015Z,7.30
2017-08-23T03:56:19.256Z,6.20
2017-08-23T03:58:47.524Z,6.47
2017-08-23T04:01:15.781Z,4.90
2017-08-23T04:03:44.072Z,5.07
2017-08-23T04:06:12.582Z,7.37
2017-08-23T04:08:41.322Z,6.20
2017-08-23T04:11:09.820Z,8.47
2017-08-23T04:13:38.080Z,6.73
2017-08-23T04:16:06.320Z,8.70
2017-08-23T04:18:34.548Z,9.73
2017-08-23T04:21:02.855Z,7.13
2017-08-23T04:23:31.125Z,6.17
2017-08-23T04:25:59.386Z,8.03
2017-08-23T04:28:28.223Z,7.60
2017-08-23T04:30:56.776Z,7.30
2017-08-23T04:33:25.403Z,7.97
2017-08-23T04:35:53.651Z,17.33
2017-08-23T04:38:21.921Z,7.10
2017-08-23T04:40:50.225Z,9.03
2017-08-23T04:43:19.245Z,11.27
2017-08-23T04:45:47.497Z,12.70
2017-08-23T04:48:15.769Z,19.90
2017-08-23T04:50:44.035Z,13.57
2017-08-23T04:53:12.306Z,11.47
2017-08-23T04:55:40.588Z,11.13
2017-08-23T04:58:08.885Z,13.43
2017-08-23T05:00:37.262Z,12.77
2017-08-23T05:03:05.671Z,8.97
2017-08-23T05:05:33.928Z,13.10
2017-08-23T05:08:02.197Z,9.03
2017-08-23T05:10:30.466Z,10.90
2017-08-23T05:12:58.775Z,12.60
2017-08-23T05:15:27.375Z,8.00
2017-08-23T05:17:56.008Z,10.73
2017-08-23T05:20:24.504Z,8.23
2017-08-23T05:22:52.880Z,8.37
2017-08-23T05:25:21.164Z,10.60
2017-08-23T05:27:49.472Z,9.73
2017-08-23T05:30:17.725Z,5.57
2017-08-23T05:32:46.274Z,8.07
2017-08-23T05:35:14.604Z,11.43
2017-08-23T05:37:42.843Z,5.50
2017-08-23T05:40:11.149Z,8.40
2017-08-23T05:42:39.396Z,7.73
2017-08-23T05:45:07.876Z,9.33
2017-08-23T05:47:36.361Z,13.80
2017-08-23T05:50:04.655Z,8.90
2017-08-23T05:52:33.113Z,7.93
2017-08-23T05:55:01.749Z,8.73
2017-08-23T05:57:30.884Z,10.63
2017-08-23T05:59:59.246Z,8.17
2017-08-23T06:02:27.793Z,5.07
2017-08-23T06:04:56.036Z,10.13
2017-08-23T06:07:24.302Z,11.83
2017-08-23T06:09:52.552Z,8.63
2017-08-23T06:12:20.807Z,8.03
2017-08-23T06:14:49.072Z,8.40
2017-08-23T06:17:17.315Z,5.23
2017-08-23T06:19:45.557Z,9.07
2017-08-23T06:22:13.959Z,5.97
2017-08-23T06:24:42.208Z,4.80
2017-08-23T06:27:10.440Z,4.97
2017-08-23T06:29:38.901Z,8.93
2017-08-23T06:32:07.167Z,7.00
2017-08-23T06:34:35.403Z,6.93
2017-08-23T06:37:03.650Z,5.50
2017-08-23T06:39:31.889Z,4.90
2017-08-23T06:42:00.156Z,7.00
2017-08-23T06:44:28.407Z,8.43
2017-08-23T06:46:56.649Z,10.80
2017-08-23T06:49:24.924Z,10.83
2017-08-23T06:51:53.249Z,10.80
2017-08-23T06:54:21.527Z,7.80
2017-08-23T06:56:49.853Z,5.87
2017-08-23T06:59:18.093Z,8.97
2017-08-23T07:01:46.348Z,13.63
2017-08-23T07:04:15.557Z,4.67
2017-08-23T07:06:44.028Z,5.43
2017-08-23T07:09:12.268Z,6.40
2017-08-23T07:11:41.780Z,4.10
2017-08-23T07:14:10.111Z,7.80
2017-08-23T07:16:38.331Z,4.90
2017-08-23T07:19:06.821Z,5.60
2017-08-23T07:21:35.361Z,7.23
2017-08-23T07:24:03.585Z,13.17
2017-08-23T07:26:31.867Z,10.30
2017-08-23T07:29:00.119Z,7.60
2017-08-23T07:31:28.365Z,7.30
2017-08-23T07:33:56.614Z,15.80
2017-08-23T07:36:24.856Z,4.60
2017-08-23T07:38:53.872Z,7.70
2017-08-23T07:41:22.628Z,7.67
2017-08-23T07:43:50.861Z,10.97
2017-08-23T07:46:19.181Z,13.30
2017-08-23T07:48:47.437Z,9.33
2017-08-23T07:51:15.669Z,5.83
2017-08-23T07:53:43.931Z,5.73
2017-08-23T07:56:12.214Z,8.53
2017-08-23T07:58:41.047Z,7.20
2017-08-23T08:01:09.489Z,10.80
2017-08-23T08:03:37.720Z,9.30
2017-08-23T08:06:05.958Z,6.07
2017-08-23T08:08:34.513Z,7.33
2017-08-23T08:11:02.754Z,5.93
2017-08-23T08:13:30.989Z,4.80
2017-08-23T08:15:59.375Z,4.10
2017-08-23T08:18:27.698Z,6.53
2017-08-23T08:20:55.954Z,3.87
2017-08-23T08:23:24.195Z,6.70
2017-08-23T08:25:52.911Z,4.87
2017-08-23T08:28:22.006Z,5.50
2017-08-23T08:30:50.266Z,3.93
2017-08-23T08:33:18.596Z,4.93
2017-08-23T08:35:46.840Z,4.53
2017-08-23T08:38:15.316Z,4.87
2017-08-23T08:40:43.598Z,5.07
2017-08-23T08:43:11.839Z,5.33
2017-08-23T08:45:40.089Z,4.60
2017-08-23T08:48:08.357Z,3.60
2017-08-23T08:50:36.630Z,4.67
2017-08-23T08:53:05.125Z,5.00
2017-08-23T08:55:33.570Z,3.50
2017-08-23T08:58:01.819Z,3.90
2017-08-23T09:00:30.361Z,3.90
2017-08-23T09:02:58.787Z,3.50
2017-08-23T09:05:27.024Z,2.80
2017-08-23T09:07:55.329Z,3.70
2017-08-23T09:10:23.561Z,3.67
2017-08-23T09:12:52.702Z,7.93
2017-08-23T09:15:21.146Z,3.80
2017-08-23T09:17:49.422Z,2.43
2017-08-23T09:20:18.089Z,3.00
2017-08-23T09:22:46.387Z,2.60
2017-08-23T09:25:14.644Z,2.10
2017-08-23T09:27:42.880Z,2.90
2017-08-23T09:30:11.316Z,5.17
2017-08-23T09:32:39.606Z,3.57
2017-08-23T09:35:07.937Z,9.93
2017-08-23T09:37:36.495Z,4.67
2017-08-23T09:40:04.920Z,6.23
2017-08-23T09:42:33.209Z,2.50
2017-08-23T09:45:01.480Z,2.53
2017-08-23T09:47:29.724Z,6.60
2017-08-23T09:49:59.530Z,3.00
2017-08-23T09:52:27.817Z,7.97
2017-08-23T09:54:56.037Z,4.23
2017-08-23T09:57:25.056Z,4.13
2017-08-23T09:59:55.763Z,4.90
2017-08-23T10:02:23.952Z,2.43
2017-08-23T10:04:53.028Z,8.50
2017-08-23T10:07:21.276Z,5.87
2017-08-23T10:09:49.509Z,3.03
2017-08-23T10:12:18.062Z,2.73
2017-08-23T10:14:46.385Z,4.00
2017-08-23T10:17:14.726Z,3.63
2017-08-23T10:19:43.002Z,4.50
2017-08-23T10:22:11.238Z,3.70
2017-08-23T10:24:39.505Z,4.40
2017-08-23T10:27:07.752Z,5.77
2017-08-23T10:29:36.057Z,2.70
2017-08-23T10:32:05.042Z,2.10
2017-08-23T10:34:33.287Z,6.10
2017-08-23T10:37:01.508Z,4.50
2017-08-23T10:39:29.962Z,2.07
2017-08-23T10:41:58.191Z,3.83
2017-08-23T10:44:26.440Z,2.53
2017-08-23T10:46:54.725Z,3.50
2017-08-23T10:49:23.245Z,6.83
2017-08-23T10:51:51.544Z,4.03
2017-08-23T10:54:19.973Z,5.53
2017-08-23T10:56:48.213Z,3.00
2017-08-23T10:59:17.441Z,5.57
2017-08-23T11:01:45.749Z,5.40
2017-08-23T11:04:13.968Z,3.20
2017-08-23T11:06:42.437Z,2.63
2017-08-23T11:09:10.777Z,3.27
2017-08-23T11:11:39.358Z,3.63
2017-08-23T11:14:07.614Z,3.13
2017-08-23T11:16:36.086Z,1.70
2017-08-23T11:19:04.328Z,3.80
2017-08-23T11:21:32.560Z,2.63
2017-08-23T11:24:00.828Z,2.43
2017-08-23T11:26:29.075Z,3.67
2017-08-23T11:28:57.357Z,4.70
2017-08-23T11:31:25.676Z,3.03
2017-08-23T11:33:53.910Z,5.53
2017-08-23T11:36:22.152Z,2.80
2017-08-23T11:38:50.414Z,3.20
2017-08-23T11:41:18.644Z,3.23
2017-08-23T11:43:47.001Z,2.43
2017-08-23T11:46:15.236Z,2.43
2017-08-23T11:48:43.492Z,3.13
2017-08-23T11:51:11.892Z,1.90
2017-08-23T11:53:40.164Z,4.53
2017-08-23T11:56:08.425Z,2.20
2017-08-23T11:58:36.707Z,2.60
2017-08-23T12:01:05.009Z,1.87
2017-08-23T12:03:33.285Z,3.67
2017-08-23T12:06:01.698Z,2.70
2017-08-23T12:08:29.952Z,2.37
2017-08-23T12:10:58.218Z,1.80
2017-08-23T12:13:26.473Z,4.57
2017-08-23T12:15:54.944Z,2.33
2017-08-23T12:18:23.376Z,2.40
2017-08-23T12:20:51.705Z,3.90
2017-08-23T12:23:19.991Z,4.43
2017-08-23T12:25:48.267Z,4.57
2017-08-23T12:28:17.053Z,2.50
2017-08-23T12:30:45.295Z,4.23
2017-08-23T12:33:13.573Z,5.13
2017-08-23T12:35:41.828Z,5.00
2017-08-23T12:38:10.080Z,2.20
2017-08-23T12:40:38.351Z,6.03
2017-08-23T12:43:06.604Z,3.70
2017-08-23T12:45:34.890Z,2.30
2017-08-23T12:48:03.195Z,3.83
2017-08-23T12:50:31.472Z,4.03
2017-08-23T12:52:59.714Z,3.70
2017-08-23T12:55:28.364Z,4.03
2017-08-23T12:57:56.831Z,4.67
2017-08-23T13:00:25.073Z,1.87
2017-08-23T13:02:53.728Z,4.17
2017-08-23T13:05:21.965Z,2.40
2017-08-23T13:07:50.208Z,3.83
2017-08-23T13:10:19.535Z,2.50
2017-08-23T13:12:47.829Z,5.87
2017-08-23T13:15:16.065Z,4.93
2017-08-23T13:17:44.454Z,1.60
2017-08-23T13:20:12.685Z,2.63
2017-08-23T13:22:40.934Z,1.50
2017-08-23T13:25:09.416Z,2.17
2017-08-23T13:27:38.551Z,2.53
2017-08-23T13:30:07.703Z,5.30
2017-08-23T13:32:36.708Z,3.03
2017-08-23T13:35:04.999Z,3.50
2017-08-23T13:37:33.261Z,2.60
2017-08-23T13:40:01.737Z,5.67
2017-08-23T13:42:29.998Z,2.63
2017-08-23T13:44:58.254Z,2.17
2017-08-23T13:47:26.520Z,4.33
2017-08-23T13:49:55.122Z,3.43
2017-08-23T13:52:23.837Z,4.20
2017-08-23T13:54:52.072Z,4.73
2017-08-23T13:57:20.337Z,5.60
2017-08-23T13:59:48.640Z,3.20
2017-08-23T14:02:16.876Z,3.07
2017-08-23T14:04:45.147Z,1.93
2017-08-23T14:07:14.279Z,3.10
2017-08-23T14:09:43.400Z,2.27
2017-08-23T14:12:11.661Z,3.83
2017-08-23T14:14:39.936Z,1.70
2017-08-23T14:17:08.344Z,1.83
2017-08-23T14:19:36.652Z,4.23
2017-08-23T14:22:04.890Z,5.00
2017-08-23T14:24:33.186Z,3.30
2017-08-23T14:27:01.529Z,18.20
2017-08-23T14:29:29.771Z,5.73
2017-08-23T14:31:58.047Z,2.60
2017-08-23T14:34:26.328Z,3.73
2017-08-23T14:36:54.795Z,4.67
2017-08-23T14:39:23.188Z,8.40
2017-08-23T14:41:51.447Z,3.47
2017-08-23T14:44:19.692Z,3.17
2017-08-23T14:46:48.001Z,4.10
2017-08-23T14:49:17.430Z,7.00
2017-08-23T14:51:45.778Z,4.37
2017-08-23T14:54:14.964Z,3.80
2017-08-23T14:56:43.203Z,2.73
2017-08-23T14:59:11.678Z,3.07
2017-08-23T15:01:40.040Z,3.90
2017-08-23T15:04:08.300Z,5.63
2017-08-23T15:06:36.588Z,3.00
2017-08-23T15:09:05.015Z,3.80
2017-08-23T15:11:33.264Z,5.03
2017-08-23T15:14:01.720Z,3.00
2017-08-23T15:16:30.097Z,4.10
2017-08-23T15:18:58.340Z,3.10
2017-08-23T15:21:26.612Z,6.37
2017-08-23T15:23:54.924Z,5.40
2017-08-23T15:26:23.170Z,2.37
2017-08-23T15:28:51.521Z,11.27
2017-08-23T15:31:19.801Z,5.53
2017-08-23T15:33:48.042Z,3.80
2017-08-23T15:36:16.287Z,2.27
2017-08-23T15:38:44.574Z,3.27
2017-08-23T15:41:12.825Z,4.90
2017-08-23T15:43:41.100Z,4.17
2017-08-23T15:46:09.340Z,3.00
2017-08-23T15:48:37.592Z,1.90
2017-08-23T15:51:05.865Z,5.53
2017-08-23T15:53:34.105Z,7.83
2017-08-23T15:56:02.344Z,3.97
2017-08-23T15:58:30.658Z,2.80
2017-08-23T16:00:59.778Z,4.17
2017-08-23T16:03:28.657Z,1.77
2017-08-23T16:05:56.921Z,2.10
2017-08-23T16:08:25.164Z,3.07
2017-08-23T16:10:53.444Z,2.50
2017-08-23T16:13:21.708Z,5.23
2017-08-23T16:15:49.945Z,2.90
2017-08-23T16:18:18.238Z,4.90
2017-08-23T16:20:46.492Z,3.00
2017-08-23T16:23:15.010Z,4.57
2017-08-23T16:25:43.368Z,3.33
2017-08-23T16:28:11.852Z,5.00
2017-08-23T16:30:40.307Z,2.63
2017-08-23T16:33:08.853Z,3.70
2017-08-23T16:35:37.126Z,3.60
2017-08-23T16:38:05.361Z,4.90
2017-08-23T16:40:33.701Z,3.30
2017-08-23T16:43:03.204Z,3.47
2017-08-23T16:45:31.475Z,5.40
2017-08-23T16:47:59.746Z,4.23
2017-08-23T16:50:27.991Z,4.53
2017-08-23T16:52:56.271Z,3.93
2017-08-23T16:55:25.401Z,4.30
2017-08-23T16:57:53.665Z,3.57
2017-08-23T17:00:21.926Z,9.10
2017-08-23T17:02:50.201Z,8.70
2017-08-23T17:05:18.445Z,6.00
2017-08-23T17:07:46.888Z,8.63
2017-08-23T17:10:15.260Z,3.13
2017-08-23T17:12:43.536Z,7.97
2017-08-23T17:15:12.779Z,6.00
2017-08-23T17:17:41.083Z,4.17
2017-08-23T17:20:09.390Z,7.87
2017-08-23T17:22:37.811Z,2.40
2017-08-23T17:25:06.090Z,3.43
2017-08-23T17:27:34.518Z,3.47
2017-08-23T17:30:02.784Z,6.27
2017-08-23T17:32:31.031Z,4.43
2017-08-23T17:34:59.323Z,11.27
2017-08-23T17:37:27.598Z,28.43
2017-08-23T17:39:55.847Z,25.27
2017-08-23T17:42:24.107Z,18.20
2017-08-23T17:44:52.393Z,16.60
2017-08-23T17:47:25.267Z,13.50
2017-08-23T17:49:53.683Z,11.40
2017-08-23T17:52:21.924Z,7.87
2017-08-23T17:54:50.252Z,4.60
2017-08-23T17:57:18.526Z,6.07
2017-08-23T17:59:47.516Z,6.70
2017-08-23T18:02:15.989Z,5.57
2017-08-23T18:04:44.393Z,3.47
2017-08-23T18:07:12.852Z,5.83
2017-08-23T18:09:41.112Z,3.10
2017-08-23T18:12:09.422Z,8.33
2017-08-23T18:14:37.706Z,8.07
2017-08-23T18:17:06.034Z,6.07
2017-08-23T18:19:34.304Z,6.63
2017-08-23T18:22:02.551Z,4.77
2017-08-23T18:24:30.829Z,10.43
2017-08-23T18:26:59.100Z,6.03
2017-08-23T18:29:27.362Z,4.00
2017-08-23T18:31:55.607Z,6.47
2017-08-23T18:34:23.953Z,5.30
2017-08-23T18:36:52.235Z,3.93
2017-08-23T18:39:20.472Z,5.10
2017-08-23T18:41:48.865Z,4.63
2017-08-23T18:44:17.176Z,5.10
2017-08-23T18:46:45.411Z,4.50
2017-08-23T18:49:13.680Z,5.97
2017-08-23T18:51:41.989Z,3.67
2017-08-23T18:54:10.248Z,4.60
2017-08-23T18:56:38.933Z,5.60
2017-08-23T18:59:07.475Z,5.33
2017-08-23T19:01:36.368Z,6.20
2017-08-23T19:04:04.712Z,6.60
2017-08-23T19:06:33.004Z,6.93
2017-08-23T19:09:01.886Z,5.37
2017-08-23T19:11:30.163Z,9.00
2017-08-23T19:13:58.404Z,6.00
2017-08-23T19:16:26.655Z,6.37
2017-08-23T19:18:55.111Z,7.30
2017-08-23T19:21:23.519Z,7.00
2017-08-23T19:23:52.003Z,6.10
2017-08-23T19:26:20.359Z,9.03
2017-08-23T19:28:48.668Z,7.57
2017-08-23T19:31:16.970Z,7.37
2017-08-23T19:33:45.388Z,7.57
2017-08-23T19:36:13.852Z,7.00
2017-08-23T19:38:42.490Z,10.20
2017-08-23T19:41:11.130Z,22.73
2017-08-23T19:43:39.377Z,12.03
2017-08-23T19:46:07.621Z,10.83
2017-08-23T19:48:35.920Z,7.70
2017-08-23T19:51:04.168Z,11.43
2017-08-23T19:53:33.175Z,9.60
2017-08-23T19:56:01.456Z,8.10
2017-08-23T19:58:29.744Z,10.73
2017-08-23T20:00:57.984Z,13.10
2017-08-23T20:03:26.317Z,8.23
2017-08-23T20:05:54.570Z,8.43
2017-08-23T20:08:22.821Z,8.03
2017-08-23T20:10:51.093Z,10.00
2017-08-23T20:13:19.701Z,14.63
2017-08-23T20:15:47.936Z,12.43
2017-08-23T20:18:18.872Z,10.63
2017-08-23T20:20:47.148Z,10.20
2017-08-23T20:23:15.391Z,9.07
2017-08-23T20:25:44.353Z,15.40
2017-08-23T20:28:12.620Z,12.90
2017-08-23T20:30:40.931Z,10.97
2017-08-23T20:33:09.220Z,14.57
2017-08-23T20:35:37.700Z,10.83
2017-08-23T20:38:06.652Z,12.63
2017-08-23T20:40:34.932Z,13.07
2017-08-23T20:43:04.319Z,17.43
2017-08-23T20:45:32.600Z,12.30
2017-08-23T20:48:00.869Z,8.20
2017-08-23T20:50:29.125Z,16.43
2017-08-23T20:52:57.562Z,12.30
2017-08-23T20:55:25.847Z,13.10
2017-08-23T20:57:54.078Z,13.27
2017-08-23T21:00:22.316Z,12.57
2017-08-23T21:02:50.633Z,13.53
2017-08-23T21:05:18.951Z,10.60
2017-08-23T21:07:47.219Z,10.10
2017-08-23T21:10:15.495Z,16.30
2017-08-23T21:12:43.788Z,10.73
2017-08-23T21:15:12.082Z,12.77
2017-08-23T21:17:40.362Z,11.93
2017-08-23T21:20:08.634Z,11.53
2017-08-23T21:22:36.872Z,11.00
2017-08-23T21:25:05.257Z,13.80
2017-08-23T21:27:33.509Z,13.37
2017-08-23T21:30:01.748Z,14.40
2017-08-23T21:32:30.011Z,15.83
2017-08-23T21:34:58.240Z,13.67
2017-08-23T21:37:26.487Z,13.23
2017-08-23T21:39:54.908Z,11.73
2017-08-23T21:42:23.155Z,17.03
2017-08-23T21:44:51.472Z,18.50
2017-08-23T21:47:19.768Z,9.67
2017-08-23T21:49:48.264Z,17.10
2017-08-23T21:52:16.517Z,12.60
2017-08-23T21:54:44.780Z,14.63
2017-08-23T21:57:13.033Z,12.90
2017-08-23T21:59:41.283Z,19.00
2017-08-23T22:02:09.957Z,16.60
2017-08-23T22:04:38.676Z,14.83
2017-08-23T22:07:06.954Z,24.27
2017-08-23T22:09:36.071Z,14.07
2017-08-23T22:12:04.333Z,15.40
2017-08-23T22:14:32.582Z,14.13
2017-08-23T22:17:00.994Z,15.70
2017-08-23T22:19:29.249Z,13.50
2017-08-23T22:21:57.503Z,20.17
2017-08-23T22:24:25.808Z,16.57
2017-08-23T22:26:54.056Z,13.67
2017-08-23T22:29:22.301Z,16.47
2017-08-23T22:31:50.600Z,25.37
2017-08-23T22:34:18.839Z,13.83
2017-08-23T22:36:47.307Z,17.23
2017-08-23T22:39:15.599Z,13.00
2017-08-23T22:41:43.840Z,14.13
2017-08-23T22:44:13.096Z,14.97
2017-08-23T22:46:41.495Z,16.70
2017-08-23T22:49:09.980Z,15.63
2017-08-23T22:51:38.451Z,11.40
2017-08-23T22:54:06.721Z,9.60
2017-08-23T22:56:34.952Z,15.20
2017-08-23T22:59:03.215Z,9.17
2017-08-23T23:01:31.483Z,12.27
2017-08-23T23:03:59.748Z,11.27
2017-08-23T23:06:28.009Z,10.50
2017-08-23T23:08:56.335Z,12.07
2017-08-23T23:11:24.576Z,11.13
2017-08-23T23:13:52.817Z,10.93
2017-08-23T23:16:21.245Z,9.87
2017-08-23T23:18:50.165Z,13.93
2017-08-23T23:21:18.408Z,13.17
2017-08-23T23:23:46.843Z,12.13
2017-08-23T23:26:15.080Z,17.97
2017-08-23T23:28:43.324Z,13.13
2017-08-23T23:31:11.595Z,14.10
2017-08-23T23:33:39.843Z,13.23
2017-08-23T23:36:08.079Z,18.43
2017-08-23T23:38:36.363Z,22.33
2017-08-23T23:41:04.599Z,18.07
2017-08-23T23:43:32.865Z,17.03
2017-08-23T23:46:01.179Z,15.07
2017-08-23T23:48:29.419Z,15.23
2017-08-23T23:50:57.881Z,14.80
2017-08-23T23:53:26.185Z,14.77
2017-08-23T23:55:54.421Z,19.07
2017-08-23T23:58:22.666Z,18.47
